sensor_id;sensor_type;location;lat;lon;timestamp;pressure;altitude;pressure_sealevel;temperature;humidity
53619;BME280;68717;53.040;18.488;2023-08-24T00:00:06;101386.00;;;19.17;100.00
53619;BME280;68717;53.040;18.488;2023-08-24T00:00:19;101389.56;;;19.18;100.00
53619;BME280;68717;53.040;18.488;2023-08-24T00:00:52;101387.22;;;19.15;100.00
53619;BME280;68717;53.040;18.488;2023-08-24T00:01:17;101386.53;;;19.13;100.00
53619;BME280;68717;53.040;18.488;2023-08-24T00:01:30;101394.69;;;19.13;100.00
53619;BME280;68717;53.040;18.488;2023-08-24T00:01:43;101392.13;;;19.11;100.00
53619;BME280;68717;53.040;18.488;2023-08-24T00:01:55;101389.63;;;19.09;100.00
53619;BME280;68717;53.040;18.488;2023-08-24T00:02:08;101383.31;;;19.09;100.00
53619;BME280;68717;53.040;18.488;2023-08-24T00:02:22;101383.50;;;19.07;100.00
53619;BME280;68717;53.040;18.488;2023-08-24T00:02:35;101388.94;;;19.07;100.00
53619;BME280;68717;53.040;18.488;2023-08-24T00:02:47;101385.34;;;19.07;100.00
53619;BME280;68717;53.040;18.488;2023-08-24T00:03:00;101385.53;;;19.05;100.00
53619;BME280;68717;53.040;18.488;2023-08-24T00:03:15;101389.09;;;19.06;100.00
53619;BME280;68717;53.040;18.488;2023-08-24T00:03:29;101390.09;;;19.05;100.00
53619;BME280;68717;53.040;18.488;2023-08-24T00:03:43;101384.88;;;19.03;100.00
53619;BME280;68717;53.040;18.488;2023-08-24T00:03:56;101384.88;;;19.03;100.00
53619;BME280;68717;53.040;18.488;2023-08-24T00:04:08;101383.16;;;19.02;100.00
53619;BME280;68717;53.040;18.488;2023-08-24T00:04:21;101387.56;;;19.03;100.00
53619;BME280;68717;53.040;18.488;2023-08-24T00:04:35;101385.88;;;19.02;100.00
53619;BME280;68717;53.040;18.488;2023-08-24T00:04:47;101385.88;;;19.02;100.00
53619;BME280;68717;53.040;18.488;2023-08-24T00:05:01;101381.47;;;19.01;100.00
53619;BME280;68717;53.040;18.488;2023-08-24T00:05:13;101393.19;;;19.02;100.00
53619;BME280;68717;53.040;18.488;2023-08-24T00:05:26;101394.00;;;19.02;100.00
53619;BME280;68717;53.040;18.488;2023-08-24T00:05:39;101391.31;;;19.02;100.00
53619;BME280;68717;53.040;18.488;2023-08-24T00:05:52;101384.19;;;19.01;100.00
53619;BME280;68717;53.040;18.488;2023-08-24T00:06:05;101386.91;;;19.01;100.00
53619;BME280;68717;53.040;18.488;2023-08-24T00:06:18;101390.47;;;19.02;100.00
53619;BME280;68717;53.040;18.488;2023-08-24T00:06:31;101383.34;;;19.01;100.00
53619;BME280;68717;53.040;18.488;2023-08-24T00:06:44;101386.91;;;19.01;100.00
53619;BME280;68717;53.040;18.488;2023-08-24T00:06:58;101382.47;;;19.00;100.00
53619;BME280;68717;53.040;18.488;2023-08-24T00:07:10;101393.34;;;19.00;100.00
53619;BME280;68717;53.040;18.488;2023-08-24T00:07:23;101388.94;;;18.99;100.00
53619;BME280;68717;53.040;18.488;2023-08-24T00:07:36;101390.63;;;19.00;100.00
53619;BME280;68717;53.040;18.488;2023-08-24T00:07:49;101393.34;;;19.00;100.00
53619;BME280;68717;53.040;18.488;2023-08-24T00:08:02;101386.22;;;18.99;100.00
53619;BME280;68717;53.040;18.488;2023-08-24T00:08:15;101389.78;;;19.00;100.00
53619;BME280;68717;53.040;18.488;2023-08-24T00:08:28;101387.91;;;19.00;100.00
53619;BME280;68717;53.040;18.488;2023-08-24T00:08:41;101389.63;;;19.01;100.00
53619;BME280;68717;53.040;18.488;2023-08-24T00:08:54;101387.06;;;19.00;100.00
53619;BME280;68717;53.040;18.488;2023-08-24T00:09:06;101391.50;;;19.01;100.00
53619;BME280;68717;53.040;18.488;2023-08-24T00:09:19;101379.75;;;19.00;100.00
53619;BME280;68717;53.040;18.488;2023-08-24T00:09:32;101389.63;;;19.01;100.00
53619;BME280;68717;53.040;18.488;2023-08-24T00:09:44;101383.34;;;19.01;100.00
53619;BME280;68717;53.040;18.488;2023-08-24T00:09:57;101386.91;;;19.01;100.00
53619;BME280;68717;53.040;18.488;2023-08-24T00:10:10;101380.63;;;19.01;100.00
53619;BME280;68717;53.040;18.488;2023-08-24T00:10:22;101387.91;;;19.00;100.00
53619;BME280;68717;53.040;18.488;2023-08-24T00:10:36;101388.78;;;19.01;100.00
53619;BME280;68717;53.040;18.488;2023-08-24T00:10:49;101387.06;;;19.00;100.00
53619;BME280;68717;53.040;18.488;2023-08-24T00:11:02;101385.19;;;19.00;100.00
53619;BME280;68717;53.040;18.488;2023-08-24T00:11:14;101393.34;;;19.00;100.00
53619;BME280;68717;53.040;18.488;2023-08-24T00:11:27;101388.09;;;18.99;100.00
53619;BME280;68717;53.040;18.488;2023-08-24T00:11:40;101389.94;;;18.98;100.00
53619;BME280;68717;53.040;18.488;2023-08-24T00:11:52;101392.66;;;18.98;100.00
53619;BME280;68717;53.040;18.488;2023-08-24T00:12:06;101389.94;;;18.98;100.00
53619;BME280;68717;53.040;18.488;2023-08-24T00:12:19;101391.66;;;18.99;100.00
53619;BME280;68717;53.040;18.488;2023-08-24T00:12:32;101393.53;;;18.99;100.00
53619;BME280;68717;53.040;18.488;2023-08-24T00:12:46;101385.53;;;18.97;100.00
53619;BME280;68717;53.040;18.488;2023-08-24T00:12:59;101388.25;;;18.97;100.00
53619;BME280;68717;53.040;18.488;2023-08-24T00:13:11;101384.50;;;18.98;100.00
53619;BME280;68717;53.040;18.488;2023-08-24T00:13:24;101386.22;;;18.99;100.00
53619;BME280;68717;53.040;18.488;2023-08-24T00:13:37;101382.66;;;18.99;100.00
53619;BME280;68717;53.040;18.488;2023-08-24T00:13:50;101389.09;;;18.98;100.00
53619;BME280;68717;53.040;18.488;2023-08-24T00:14:03;101383.66;;;18.98;100.00
53619;BME280;68717;53.040;18.488;2023-08-24T00:14:17;101384.50;;;18.98;100.00
53619;BME280;68717;53.040;18.488;2023-08-24T00:14:29;101380.94;;;18.98;100.00
53619;BME280;68717;53.040;18.488;2023-08-24T00:14:42;101377.38;;;18.97;100.00
53619;BME280;68717;53.040;18.488;2023-08-24T00:14:55;101377.38;;;18.97;100.00
53619;BME280;68717;53.040;18.488;2023-08-24T00:15:09;101380.09;;;18.97;100.00
53619;BME280;68717;53.040;18.488;2023-08-24T00:15:22;101380.09;;;18.97;100.00
53619;BME280;68717;53.040;18.488;2023-08-24T00:15:35;101383.66;;;18.98;100.00
53619;BME280;68717;53.040;18.488;2023-08-24T00:15:48;101382.81;;;18.97;100.00
53619;BME280;68717;53.040;18.488;2023-08-24T00:16:02;101379.28;;;18.97;100.00
53619;BME280;68717;53.040;18.488;2023-08-24T00:16:15;101385.72;;;18.96;100.00
53619;BME280;68717;53.040;18.488;2023-08-24T00:16:27;101381.13;;;18.96;100.00
53619;BME280;68717;53.040;18.488;2023-08-24T00:16:41;101389.25;;;18.96;100.00
53619;BME280;68717;53.040;18.488;2023-08-24T00:16:54;101383.84;;;18.96;100.00
53619;BME280;68717;53.040;18.488;2023-08-24T00:17:07;101391.97;;;18.96;100.00
53619;BME280;68717;53.040;18.488;2023-08-24T00:17:19;101388.25;;;18.97;100.00
53619;BME280;68717;53.040;18.488;2023-08-24T00:17:33;101386.53;;;18.96;100.00
53619;BME280;68717;53.040;18.488;2023-08-24T00:17:46;101393.69;;;18.97;100.00
53619;BME280;68717;53.040;18.488;2023-08-24T00:18:00;101382.00;;;18.97;100.00
53619;BME280;68717;53.040;18.488;2023-08-24T00:18:13;101387.41;;;18.97;100.00
53619;BME280;68717;53.040;18.488;2023-08-24T00:18:25;101387.41;;;18.97;100.00
53619;BME280;68717;53.040;18.488;2023-08-24T00:18:38;101390.13;;;18.97;100.00
53619;BME280;68717;53.040;18.488;2023-08-24T00:18:51;101383.84;;;18.96;100.00
53619;BME280;68717;53.040;18.488;2023-08-24T00:19:04;101387.59;;;18.95;100.00
53619;BME280;68717;53.040;18.488;2023-08-24T00:19:16;101379.44;;;18.95;100.00
53619;BME280;68717;53.040;18.488;2023-08-24T00:19:29;101383.16;;;18.94;100.00
53619;BME280;68717;53.040;18.488;2023-08-24T00:19:42;101383.16;;;18.94;100.00
53619;BME280;68717;53.040;18.488;2023-08-24T00:19:54;101383.16;;;18.94;100.00
53619;BME280;68717;53.040;18.488;2023-08-24T00:20:09;101387.75;;;18.94;100.00
53619;BME280;68717;53.040;18.488;2023-08-24T00:20:23;101382.31;;;18.94;100.00
53619;BME280;68717;53.040;18.488;2023-08-24T00:20:36;101381.47;;;18.93;100.00
53619;BME280;68717;53.040;18.488;2023-08-24T00:20:49;101382.31;;;18.94;100.00
53619;BME280;68717;53.040;18.488;2023-08-24T00:21:02;101387.94;;;18.92;100.00
53619;BME280;68717;53.040;18.488;2023-08-24T00:21:15;101386.06;;;18.93;100.00
53619;BME280;68717;53.040;18.488;2023-08-24T00:21:29;101380.63;;;18.93;100.00
53619;BME280;68717;53.040;18.488;2023-08-24T00:21:43;101371.63;;;18.92;100.00
53619;BME280;68717;53.040;18.488;2023-08-24T00:21:55;101380.78;;;18.91;100.00
53619;BME280;68717;53.040;18.488;2023-08-24T00:22:08;101379.94;;;18.91;100.00
53619;BME280;68717;53.040;18.488;2023-08-24T00:22:21;101382.66;;;18.91;100.00
53619;BME280;68717;53.040;18.488;2023-08-24T00:22:34;101380.13;;;18.89;100.00
53619;BME280;68717;53.040;18.488;2023-08-24T00:22:47;101381.81;;;18.90;100.00
53619;BME280;68717;53.040;18.488;2023-08-24T00:23:01;101382.84;;;18.89;100.00
53619;BME280;68717;53.040;18.488;2023-08-24T00:23:16;101392.84;;;18.88;100.00
53619;BME280;68717;53.040;18.488;2023-08-24T00:23:32;101382.16;;;18.87;100.00
53619;BME280;68717;53.040;18.488;2023-08-24T00:23:45;101384.88;;;18.87;100.00
53619;BME280;68717;53.040;18.488;2023-08-24T00:23:58;101378.59;;;18.86;100.00
53619;BME280;68717;53.040;18.488;2023-08-24T00:24:12;101375.03;;;18.86;100.00
53619;BME280;68717;53.040;18.488;2023-08-24T00:24:24;101377.75;;;18.86;100.00
53619;BME280;68717;53.040;18.488;2023-08-24T00:24:37;101376.03;;;18.85;100.00
53619;BME280;68717;53.040;18.488;2023-08-24T00:24:49;101379.59;;;18.85;100.00
53619;BME280;68717;53.040;18.488;2023-08-24T00:25:02;101378.75;;;18.85;100.00
53619;BME280;68717;53.040;18.488;2023-08-24T00:25:15;101378.75;;;18.85;100.00
53619;BME280;68717;53.040;18.488;2023-08-24T00:25:29;101376.03;;;18.85;100.00
53619;BME280;68717;53.040;18.488;2023-08-24T00:25:41;101377.06;;;18.84;100.00
53619;BME280;68717;53.040;18.488;2023-08-24T00:25:54;101378.94;;;18.83;100.00
53619;BME280;68717;53.040;18.488;2023-08-24T00:26:07;101378.06;;;18.83;100.00
53619;BME280;68717;53.040;18.488;2023-08-24T00:26:19;101380.78;;;18.83;100.00
53619;BME280;68717;53.040;18.488;2023-08-24T00:26:32;101380.97;;;18.81;100.00
53619;BME280;68717;53.040;18.488;2023-08-24T00:26:45;101373.69;;;18.82;100.00
53619;BME280;68717;53.040;18.488;2023-08-24T00:26:58;101376.41;;;18.82;100.00
53619;BME280;68717;53.040;18.488;2023-08-24T00:27:11;101371.94;;;18.81;100.00
53619;BME280;68717;53.040;18.488;2023-08-24T00:27:25;101373.69;;;18.82;100.00
53619;BME280;68717;53.040;18.488;2023-08-24T00:27:38;101372.81;;;18.81;100.00
53619;BME280;68717;53.040;18.488;2023-08-24T00:27:52;101371.94;;;18.81;100.00
53619;BME280;68717;53.040;18.488;2023-08-24T00:28:05;101373.69;;;18.82;100.00
53619;BME280;68717;53.040;18.488;2023-08-24T00:28:17;101377.38;;;18.81;100.00
53619;BME280;68717;53.040;18.488;2023-08-24T00:28:30;101377.38;;;18.81;100.00
53619;BME280;68717;53.040;18.488;2023-08-24T00:28:43;101378.25;;;18.81;100.00
53619;BME280;68717;53.040;18.488;2023-08-24T00:28:55;101372.81;;;18.81;100.00
53619;BME280;68717;53.040;18.488;2023-08-24T00:29:09;101376.41;;;18.82;100.00
53619;BME280;68717;53.040;18.488;2023-08-24T00:29:22;101377.38;;;18.81;100.00
53619;BME280;68717;53.040;18.488;2023-08-24T00:29:34;101380.09;;;18.81;100.00
53619;BME280;68717;53.040;18.488;2023-08-24T00:29:47;101377.38;;;18.81;100.00
53619;BME280;68717;53.040;18.488;2023-08-24T00:30:01;101380.09;;;18.81;100.00
53619;BME280;68717;53.040;18.488;2023-08-24T00:30:14;101379.25;;;18.80;100.00
53619;BME280;68717;53.040;18.488;2023-08-24T00:30:26;101375.69;;;18.80;100.00
53619;BME280;68717;53.040;18.488;2023-08-24T00:30:39;101371.94;;;18.81;100.00
53619;BME280;68717;53.040;18.488;2023-08-24T00:30:52;101381.97;;;18.80;100.00
53619;BME280;68717;53.040;18.488;2023-08-24T00:31:04;101375.69;;;18.80;100.00
53619;BME280;68717;53.040;18.488;2023-08-24T00:31:22;101381.13;;;18.80;100.00
53619;BME280;68717;53.040;18.488;2023-08-24T00:31:35;101375.69;;;18.80;100.00
53619;BME280;68717;53.040;18.488;2023-08-24T00:31:47;101381.13;;;18.80;100.00
53619;BME280;68717;53.040;18.488;2023-08-24T00:32:00;101381.13;;;18.80;100.00
53619;BME280;68717;53.040;18.488;2023-08-24T00:32:13;101383.84;;;18.80;100.00
53619;BME280;68717;53.040;18.488;2023-08-24T00:32:25;101382.81;;;18.81;100.00
53619;BME280;68717;53.040;18.488;2023-08-24T00:32:39;101381.13;;;18.80;100.00
53619;BME280;68717;53.040;18.488;2023-08-24T00:32:52;101376.53;;;18.80;100.00
53619;BME280;68717;53.040;18.488;2023-08-24T00:33:05;101377.38;;;18.81;100.00
53619;BME280;68717;53.040;18.488;2023-08-24T00:33:18;101376.53;;;18.80;100.00
53619;BME280;68717;53.040;18.488;2023-08-24T00:33:31;101373.97;;;18.79;100.00
53619;BME280;68717;53.040;18.488;2023-08-24T00:33:44;101383.00;;;18.79;100.00
53619;BME280;68717;53.040;18.488;2023-08-24T00:33:57;101384.00;;;18.78;100.00
53619;BME280;68717;53.040;18.488;2023-08-24T00:34:09;101377.72;;;18.78;100.00
53619;BME280;68717;53.040;18.488;2023-08-24T00:34:22;101371.44;;;18.77;100.00
53619;BME280;68717;53.040;18.488;2023-08-24T00:34:35;101378.72;;;18.77;100.00
53619;BME280;68717;53.040;18.488;2023-08-24T00:34:47;101377.03;;;18.76;100.00
53619;BME280;68717;53.040;18.488;2023-08-24T00:35:00;101374.31;;;18.76;100.00
53619;BME280;68717;53.040;18.488;2023-08-24T00:35:13;101378.06;;;18.75;100.00
53619;BME280;68717;53.040;18.488;2023-08-24T00:35:26;101382.63;;;18.74;100.00
53619;BME280;68717;53.040;18.488;2023-08-24T00:35:38;101381.78;;;18.74;100.00
53619;BME280;68717;53.040;18.488;2023-08-24T00:35:52;101383.84;;;18.72;100.00
53619;BME280;68717;53.040;18.488;2023-08-24T00:36:05;101383.00;;;18.71;100.00
53619;BME280;68717;53.040;18.488;2023-08-24T00:36:18;101382.16;;;18.71;100.00
53619;BME280;68717;53.040;18.488;2023-08-24T00:36:30;101384.88;;;18.71;100.00
53619;BME280;68717;53.040;18.488;2023-08-24T00:36:43;101383.16;;;18.69;100.00
53619;BME280;68717;53.040;18.488;2023-08-24T00:36:56;101380.44;;;18.69;100.00
53619;BME280;68717;53.040;18.488;2023-08-24T00:37:08;101388.59;;;18.69;100.00
53619;BME280;68717;53.040;18.488;2023-08-24T00:37:21;101388.59;;;18.69;100.00
53619;BME280;68717;53.040;18.488;2023-08-24T00:37:34;101384.00;;;18.70;100.00
53619;BME280;68717;53.040;18.488;2023-08-24T00:37:48;101383.31;;;18.68;100.00
53619;BME280;68717;53.040;18.488;2023-08-24T00:38:01;101386.22;;;18.66;100.00
53619;BME280;68717;53.040;18.488;2023-08-24T00:38:14;101387.06;;;18.67;100.00
53619;BME280;68717;53.040;18.488;2023-08-24T00:38:26;101386.22;;;18.66;100.00
53619;BME280;68717;53.040;18.488;2023-08-24T00:38:39;101385.38;;;18.66;100.00
53619;BME280;68717;53.040;18.488;2023-08-24T00:38:51;101386.38;;;18.65;100.00
53619;BME280;68717;53.040;18.488;2023-08-24T00:39:05;101389.09;;;18.65;100.00
53619;BME280;68717;53.040;18.488;2023-08-24T00:39:19;101387.41;;;18.64;100.00
53619;BME280;68717;53.040;18.488;2023-08-24T00:39:32;101386.53;;;18.63;100.00
53619;BME280;68717;53.040;18.488;2023-08-24T00:39:45;101388.41;;;18.63;100.00
53619;BME280;68717;53.040;18.488;2023-08-24T00:39:59;101391.13;;;18.63;100.00
53619;BME280;68717;53.040;18.488;2023-08-24T00:40:12;101392.16;;;18.62;100.00
53619;BME280;68717;53.040;18.488;2023-08-24T00:40:25;101390.44;;;18.61;100.00
53619;BME280;68717;53.040;18.488;2023-08-24T00:40:37;101389.63;;;18.60;100.00
53619;BME280;68717;53.040;18.488;2023-08-24T00:40:51;101392.31;;;18.60;100.00
53619;BME280;68717;53.040;18.488;2023-08-24T00:41:05;101396.03;;;18.59;100.00
53619;BME280;68717;53.040;18.488;2023-08-24T00:41:18;101394.34;;;18.58;100.00
53619;BME280;68717;53.040;18.488;2023-08-24T00:41:33;101402.34;;;18.60;100.00
53619;BME280;68717;53.040;18.488;2023-08-24T00:41:46;101397.06;;;18.58;100.00
53619;BME280;68717;53.040;18.488;2023-08-24T00:41:59;101394.34;;;18.58;100.00
53619;BME280;68717;53.040;18.488;2023-08-24T00:42:11;101396.03;;;18.59;100.00
53619;BME280;68717;53.040;18.488;2023-08-24T00:42:27;101399.78;;;18.58;100.00
53619;BME280;68717;53.040;18.488;2023-08-24T00:42:40;101398.94;;;18.58;100.00
53619;BME280;68717;53.040;18.488;2023-08-24T00:42:55;101398.09;;;18.57;100.00
53619;BME280;68717;53.040;18.488;2023-08-24T00:43:08;101402.66;;;18.57;100.00
53619;BME280;68717;53.040;18.488;2023-08-24T00:43:20;101390.97;;;18.56;100.00
53619;BME280;68717;53.040;18.488;2023-08-24T00:43:36;101399.09;;;18.56;100.00
53619;BME280;68717;53.040;18.488;2023-08-24T00:43:49;101401.81;;;18.56;100.00
53619;BME280;68717;53.040;18.488;2023-08-24T00:44:02;101403.69;;;18.56;100.00
53619;BME280;68717;53.040;18.488;2023-08-24T00:44:15;101401.81;;;18.56;100.00
53619;BME280;68717;53.040;18.488;2023-08-24T00:44:29;101398.25;;;18.56;100.00
53619;BME280;68717;53.040;18.488;2023-08-24T00:44:43;101400.13;;;18.55;100.00
53619;BME280;68717;53.040;18.488;2023-08-24T00:44:56;101398.25;;;18.56;100.00
53619;BME280;68717;53.040;18.488;2023-08-24T00:45:11;101402.84;;;18.55;100.00
53619;BME280;68717;53.040;18.488;2023-08-24T00:45:24;101400.13;;;18.55;100.00
53619;BME280;68717;53.040;18.488;2023-08-24T00:45:36;101395.56;;;18.56;100.00
53619;BME280;68717;53.040;18.488;2023-08-24T00:45:49;101401.81;;;18.56;100.00
53619;BME280;68717;53.040;18.488;2023-08-24T00:46:03;101398.09;;;18.57;100.00
53619;BME280;68717;53.040;18.488;2023-08-24T00:46:16;101398.09;;;18.57;100.00
53619;BME280;68717;53.040;18.488;2023-08-24T00:46:30;101395.41;;;18.57;100.00
53619;BME280;68717;53.040;18.488;2023-08-24T00:46:42;101396.22;;;18.58;100.00
53619;BME280;68717;53.040;18.488;2023-08-24T00:46:55;101390.63;;;18.59;100.00
53619;BME280;68717;53.040;18.488;2023-08-24T00:47:08;101391.66;;;18.58;100.00
53619;BME280;68717;53.040;18.488;2023-08-24T00:47:21;101388.94;;;18.58;100.00
53619;BME280;68717;53.040;18.488;2023-08-24T00:47:34;101386.22;;;18.58;100.00
53619;BME280;68717;53.040;18.488;2023-08-24T00:47:48;101391.50;;;18.60;100.00
53619;BME280;68717;53.040;18.488;2023-08-24T00:48:02;101390.44;;;18.61;100.00
53619;BME280;68717;53.040;18.488;2023-08-24T00:48:16;101390.44;;;18.61;100.00
53619;BME280;68717;53.040;18.488;2023-08-24T00:48:29;101386.06;;;18.60;100.00
53619;BME280;68717;53.040;18.488;2023-08-24T00:48:43;101390.28;;;18.62;100.00
53619;BME280;68717;53.040;18.488;2023-08-24T00:48:55;101391.28;;;18.61;100.00
53619;BME280;68717;53.040;18.488;2023-08-24T00:49:09;101389.44;;;18.62;100.00
53619;BME280;68717;53.040;18.488;2023-08-24T00:49:22;101386.91;;;18.60;100.00
53619;BME280;68717;53.040;18.488;2023-08-24T00:49:34;101392.31;;;18.60;100.00
53619;BME280;68717;53.040;18.488;2023-08-24T00:49:47;101395.03;;;18.60;100.00
53619;BME280;68717;53.040;18.488;2023-08-24T00:50:01;101390.63;;;18.59;100.00
53619;BME280;68717;53.040;18.488;2023-08-24T00:50:16;101395.19;;;18.59;100.00
53619;BME280;68717;53.040;18.488;2023-08-24T00:50:29;101393.53;;;18.58;100.00
53619;BME280;68717;53.040;18.488;2023-08-24T00:50:41;101387.25;;;18.57;100.00
53619;BME280;68717;53.040;18.488;2023-08-24T00:50:54;101389.09;;;18.57;100.00
53619;BME280;68717;53.040;18.488;2023-08-24T00:51:07;101393.00;;;18.54;100.00
53619;BME280;68717;53.040;18.488;2023-08-24T00:51:20;101395.72;;;18.54;100.00
53619;BME280;68717;53.040;18.488;2023-08-24T00:51:33;101391.31;;;18.53;100.00
53619;BME280;68717;53.040;18.488;2023-08-24T00:51:48;101398.59;;;18.53;100.00
53619;BME280;68717;53.040;18.488;2023-08-24T00:52:00;101397.75;;;18.52;100.00
53619;BME280;68717;53.040;18.488;2023-08-24T00:52:14;101391.63;;;18.50;100.00
53619;BME280;68717;53.040;18.488;2023-08-24T00:52:28;101391.63;;;18.50;100.00
53619;BME280;68717;53.040;18.488;2023-08-24T00:52:43;101388.91;;;18.50;100.00
53619;BME280;68717;53.040;18.488;2023-08-24T00:52:57;101389.94;;;18.49;100.00
53619;BME280;68717;53.040;18.488;2023-08-24T00:53:09;101392.66;;;18.49;100.00
53619;BME280;68717;53.040;18.488;2023-08-24T00:53:24;101395.38;;;18.49;100.00
53619;BME280;68717;53.040;18.488;2023-08-24T00:53:37;101394.34;;;18.50;100.00
53619;BME280;68717;53.040;18.488;2023-08-24T00:53:51;101397.06;;;18.50;100.00
53619;BME280;68717;53.040;18.488;2023-08-24T00:54:04;101391.63;;;18.50;100.00
53619;BME280;68717;53.040;18.488;2023-08-24T00:54:17;101394.34;;;18.50;100.00
53619;BME280;68717;53.040;18.488;2023-08-24T00:54:30;101393.34;;;18.51;100.00
53619;BME280;68717;53.040;18.488;2023-08-24T00:54:43;101394.19;;;18.52;100.00
53619;BME280;68717;53.040;18.488;2023-08-24T00:54:55;101393.34;;;18.51;100.00
53619;BME280;68717;53.040;18.488;2023-08-24T00:55:09;101397.75;;;18.52;100.00
53619;BME280;68717;53.040;18.488;2023-08-24T00:55:22;101395.03;;;18.52;100.00
53619;BME280;68717;53.040;18.488;2023-08-24T00:55:34;101405.06;;;18.52;100.00
53619;BME280;68717;53.040;18.488;2023-08-24T00:55:48;101393.34;;;18.51;100.00
53619;BME280;68717;53.040;18.488;2023-08-24T00:56:01;101397.75;;;18.52;100.00
53619;BME280;68717;53.040;18.488;2023-08-24T00:56:14;101396.06;;;18.51;100.00
53619;BME280;68717;53.040;18.488;2023-08-24T00:56:26;101398.78;;;18.51;100.00
53619;BME280;68717;53.040;18.488;2023-08-24T00:56:40;101397.91;;;18.51;100.00
53619;BME280;68717;53.040;18.488;2023-08-24T00:56:53;101394.34;;;18.50;100.00
53619;BME280;68717;53.040;18.488;2023-08-24T00:57:06;101389.94;;;18.49;100.00
53619;BME280;68717;53.040;18.488;2023-08-24T00:57:19;101397.25;;;18.48;100.00
53619;BME280;68717;53.040;18.488;2023-08-24T00:57:32;101392.66;;;18.49;100.00
53619;BME280;68717;53.040;18.488;2023-08-24T00:57:45;101397.25;;;18.48;100.00
53619;BME280;68717;53.040;18.488;2023-08-24T00:57:58;101397.25;;;18.48;100.00
53619;BME280;68717;53.040;18.488;2023-08-24T00:58:11;101401.81;;;18.48;100.00
53619;BME280;68717;53.040;18.488;2023-08-24T00:58:26;101396.38;;;18.48;100.00
53619;BME280;68717;53.040;18.488;2023-08-24T00:58:39;101392.81;;;18.47;100.00
53619;BME280;68717;53.040;18.488;2023-08-24T00:58:54;101392.66;;;18.49;100.00
53619;BME280;68717;53.040;18.488;2023-08-24T00:59:07;101399.09;;;18.48;100.00
53619;BME280;68717;53.040;18.488;2023-08-24T00:59:20;101399.78;;;18.50;100.00
53619;BME280;68717;53.040;18.488;2023-08-24T00:59:33;101398.09;;;18.49;100.00
53619;BME280;68717;53.040;18.488;2023-08-24T00:59:46;101397.06;;;18.50;100.00
53619;BME280;68717;53.040;18.488;2023-08-24T01:00:03;101398.94;;;18.50;100.00
53619;BME280;68717;53.040;18.488;2023-08-24T01:00:17;101397.06;;;18.50;100.00
53619;BME280;68717;53.040;18.488;2023-08-24T01:00:30;101395.19;;;18.51;100.00
53619;BME280;68717;53.040;18.488;2023-08-24T01:00:43;101399.63;;;18.52;100.00
53619;BME280;68717;53.040;18.488;2023-08-24T01:00:56;101394.19;;;18.52;100.00
53619;BME280;68717;53.040;18.488;2023-08-24T01:01:10;101394.19;;;18.52;100.00
53619;BME280;68717;53.040;18.488;2023-08-24T01:01:23;101396.75;;;18.53;100.00
53619;BME280;68717;53.040;18.488;2023-08-24T01:01:38;101392.16;;;18.54;100.00
53619;BME280;68717;53.040;18.488;2023-08-24T01:01:52;101396.75;;;18.53;100.00
53619;BME280;68717;53.040;18.488;2023-08-24T01:02:05;101395.72;;;18.54;100.00
53619;BME280;68717;53.040;18.488;2023-08-24T01:02:18;101393.84;;;18.55;100.00
53619;BME280;68717;53.040;18.488;2023-08-24T01:02:31;101397.44;;;18.55;100.00
53619;BME280;68717;53.040;18.488;2023-08-24T01:02:44;101397.44;;;18.55;100.00
53619;BME280;68717;53.040;18.488;2023-08-24T01:02:59;101391.13;;;18.55;100.00
53619;BME280;68717;53.040;18.488;2023-08-24T01:03:11;101391.13;;;18.55;100.00
53619;BME280;68717;53.040;18.488;2023-08-24T01:03:24;101392.16;;;18.54;100.00
53619;BME280;68717;53.040;18.488;2023-08-24T01:03:37;101397.59;;;18.54;100.00
53619;BME280;68717;53.040;18.488;2023-08-24T01:03:50;101398.44;;;18.54;100.00
53619;BME280;68717;53.040;18.488;2023-08-24T01:04:03;101398.44;;;18.54;100.00
53619;BME280;68717;53.040;18.488;2023-08-24T01:04:17;101398.44;;;18.54;100.00
53619;BME280;68717;53.040;18.488;2023-08-24T01:04:30;101399.28;;;18.55;100.00
53619;BME280;68717;53.040;18.488;2023-08-24T01:04:43;101391.31;;;18.53;100.00
53619;BME280;68717;53.040;18.488;2023-08-24T01:04:59;101394.88;;;18.54;100.00
53619;BME280;68717;53.040;18.488;2023-08-24T01:05:11;101398.44;;;18.54;100.00
53619;BME280;68717;53.040;18.488;2023-08-24T01:05:24;101397.59;;;18.54;100.00
53619;BME280;68717;53.040;18.488;2023-08-24T01:05:37;101400.31;;;18.54;100.00
53619;BME280;68717;53.040;18.488;2023-08-24T01:05:50;101398.25;;;18.56;100.00
53619;BME280;68717;53.040;18.488;2023-08-24T01:06:02;101393.00;;;18.54;100.00
53619;BME280;68717;53.040;18.488;2023-08-24T01:06:15;101401.16;;;18.54;100.00
53619;BME280;68717;53.040;18.488;2023-08-24T01:06:28;101398.44;;;18.54;100.00
53619;BME280;68717;53.040;18.488;2023-08-24T01:06:41;101403.00;;;18.54;100.00
53619;BME280;68717;53.040;18.488;2023-08-24T01:06:53;101405.56;;;18.55;100.00
53619;BME280;68717;53.040;18.488;2023-08-24T01:07:06;101401.16;;;18.54;100.00
53619;BME280;68717;53.040;18.488;2023-08-24T01:07:22;101402.19;;;18.53;100.00
53619;BME280;68717;53.040;18.488;2023-08-24T01:07:36;101395.72;;;18.54;100.00